Time;durP1;ratioP1;P1;durP2;ratioP2;P2;SDS_P1;SDS_P2;PMS_P1;PMS_P2;Temp;Humidity;BMP_temperature;BMP_pressure;BME280_temperature;BME280_humidity;BME280_pressure;Samples;Min_cycle;Max_cycle;Signal;HPM_P1;HPM_P2
2021/03/18 00:01:24;;;;;;;19.15;11.20;;;;;;;1.42;78.73;99023.27;2140474;83;21324;-80
2021/03/18 00:04:26;;;;;;;16.45;10.15;;;;;;;1.44;79.10;99018.80;2140007;83;21156;-80
2021/03/18 00:07:27;;;;;;;17.90;10.78;;;;;;;1.43;79.08;99020.56;2140155;83;21305;-80
2021/03/18 00:10:29;;;;;;;15.03;10.05;;;;;;;1.43;79.19;99024.91;2140008;83;21790;-80
2021/03/18 00:13:31;;;;;;;13.95;9.93;;;;;;;1.42;79.75;99025.84;2139880;83;21318;-80
2021/03/18 00:16:32;;;;;;;14.23;10.70;;;;;;;1.41;79.28;99023.73;2140299;83;21325;-80
2021/03/18 00:19:34;;;;;;;15.20;10.90;;;;;;;1.43;79.20;99023.14;2140407;83;21142;-80
2021/03/18 00:22:36;;;;;;;18.35;11.03;;;;;;;1.43;79.55;99017.16;2140336;83;21291;-80
2021/03/18 00:25:37;;;;;;;18.67;12.07;;;;;;;1.39;79.44;99010.61;2140228;83;21269;-80
2021/03/18 00:28:39;;;;;;;17.80;11.30;;;;;;;1.39;79.54;99012.71;2140519;83;21332;-80
2021/03/18 00:31:40;;;;;;;13.50;8.15;;;;;;;1.43;79.44;99012.83;2140824;83;21353;-80
2021/03/18 00:34:42;;;;;;;15.98;10.70;;;;;;;1.40;80.55;99018.22;2140307;83;21721;-80
2021/03/18 00:37:43;;;;;;;14.47;10.85;;;;;;;1.36;80.07;99011.63;2140448;83;21306;-80
2021/03/18 00:40:45;;;;;;;19.45;11.03;;;;;;;1.34;80.35;99018.67;2140287;83;21309;-80
2021/03/18 00:43:46;;;;;;;13.60;10.23;;;;;;;1.34;80.22;99011.40;2140641;83;21195;-81
2021/03/18 00:46:48;;;;;;;14.47;9.80;;;;;;;1.39;80.60;99014.47;2140201;83;21325;-80
2021/03/18 00:49:50;;;;;;;17.37;10.82;;;;;;;1.37;80.67;99009.87;2140218;83;21176;-80
2021/03/18 00:52:51;;;;;;;14.25;10.23;;;;;;;1.31;80.91;99007.77;2140482;83;21301;-80
2021/03/18 00:55:53;;;;;;;17.40;10.58;;;;;;;1.28;80.63;99013.98;2140202;83;21175;-79
2021/03/18 00:58:54;;;;;;;17.40;11.78;;;;;;;1.26;80.39;99011.96;2140219;83;21812;-79
2021/03/18 01:01:56;;;;;;;17.00;11.83;;;;;;;1.26;80.58;99002.94;2140461;83;21844;-79
2021/03/18 01:04:58;;;;;;;14.23;10.85;;;;;;;1.32;80.87;99004.25;2140170;83;21630;-79
2021/03/18 01:07:59;;;;;;;19.57;10.95;;;;;;;1.30;80.66;99003.08;2140475;83;21277;-80
2021/03/18 01:11:01;;;;;;;18.42;10.50;;;;;;;1.29;80.75;99004.48;2140507;83;21175;-79
2021/03/18 01:14:03;;;;;;;17.52;11.33;;;;;;;1.24;80.77;98994.48;2140390;83;21741;-81
2021/03/18 01:17:04;;;;;;;16.42;9.80;;;;;;;1.25;80.79;98993.55;2140510;83;21179;-79
2021/03/18 01:20:06;;;;;;;13.05;9.20;;;;;;;1.24;81.13;99001.41;2140139;83;21815;-79
2021/03/18 01:23:08;;;;;;;12.03;8.15;;;;;;;1.21;80.85;98996.02;2140182;83;21737;-79
2021/03/18 01:26:09;;;;;;;16.12;9.78;;;;;;;1.18;80.61;99002.67;2140524;83;21143;-80
2021/03/18 01:29:11;;;;;;;16.75;10.00;;;;;;;1.14;80.59;98996.93;2140074;83;21341;-79
2021/03/18 01:32:13;;;;;;;14.78;10.88;;;;;;;1.10;80.70;98997.28;2140168;83;21313;-79
2021/03/18 01:35:14;;;;;;;12.93;8.70;;;;;;;1.10;80.62;98997.28;2140828;83;21162;-79
2021/03/18 01:38:15;;;;;;;15.75;9.75;;;;;;;1.08;80.68;98996.08;2140378;83;21748;-79
2021/03/18 01:41:17;;;;;;;15.20;9.85;;;;;;;1.02;80.55;98999.12;2140141;83;21302;-79
2021/03/18 01:44:19;;;;;;;13.72;8.68;;;;;;;0.94;80.09;98998.86;2140487;83;21333;-76
2021/03/18 01:47:21;;;;;;;14.40;8.63;;;;;;;0.91;80.04;98993.09;2140187;83;21310;-78
2021/03/18 01:50:22;;;;;;;13.85;8.55;;;;;;;0.90;79.72;98993.56;2140154;83;21175;-78
2021/03/18 01:53:24;;;;;;;10.05;7.85;;;;;;;0.86;79.69;98988.28;2140483;83;21288;-78
2021/03/18 01:56:25;;;;;;;13.85;9.10;;;;;;;0.83;79.72;98992.38;2140171;83;21158;-78
2021/03/18 01:59:27;;;;;;;10.03;7.60;;;;;;;0.82;79.76;98990.70;2140228;83;21338;-78
2021/03/18 02:02:28;;;;;;;11.80;7.55;;;;;;;0.80;79.67;98993.88;2140387;83;21325;-78
2021/03/18 02:05:30;;;;;;;11.85;7.12;;;;;;;0.77;79.59;98986.38;2140234;83;21273;-78
2021/03/18 02:08:32;;;;;;;13.15;8.50;;;;;;;0.76;79.60;98991.17;2140258;83;21301;-78
2021/03/18 02:11:33;;;;;;;12.82;7.12;;;;;;;0.75;79.49;98996.80;2140108;83;21766;-79
2021/03/18 02:14:35;;;;;;;9.80;7.22;;;;;;;0.70;79.46;98998.05;2140183;83;21806;-79
2021/03/18 02:17:37;;;;;;;19.42;7.97;;;;;;;0.64;79.42;99004.92;2140484;83;21329;-80
2021/03/18 02:20:38;;;;;;;12.45;7.22;;;;;;;0.57;79.53;99008.42;2140342;83;21798;-80
2021/03/18 02:23:40;;;;;;;11.08;6.70;;;;;;;0.52;79.62;99015.64;2136867;83;21302;-80
2021/03/18 02:26:42;;;;;;;12.90;8.18;;;;;;;0.44;79.88;99007.16;2123589;84;21117;-80
2021/03/18 02:29:43;;;;;;;12.90;8.38;;;;;;;0.42;79.71;99010.79;2123304;84;21147;-80
2021/03/18 02:32:45;;;;;;;13.53;7.72;;;;;;;0.37;79.50;99016.28;2123531;84;21596;-78
2021/03/18 02:35:46;;;;;;;9.15;6.12;;;;;;;0.31;79.09;99019.74;2123336;84;21179;-77
2021/03/18 02:38:48;;;;;;;10.63;6.72;;;;;;;0.21;78.44;99009.27;2123477;84;21188;-77
2021/03/18 02:41:49;;;;;;;13.30;7.60;;;;;;;0.08;78.13;99017.46;2123485;84;21160;-79
2021/03/18 02:44:51;;;;;;;9.08;6.37;;;;;;;-0.04;78.16;99022.53;2123261;84;21117;-79
2021/03/18 02:47:53;;;;;;;11.97;6.97;;;;;;;-0.12;78.55;99028.66;2123570;84;21183;-79
2021/03/18 02:50:54;;;;;;;12.13;6.70;;;;;;;-0.21;78.14;99030.58;2123348;84;21237;-79
2021/03/18 02:53:56;;;;;;;9.15;5.50;;;;;;;-0.35;77.81;99034.56;2123328;83;22172;-80
2021/03/18 02:56:58;;;;;;;8.88;6.45;;;;;;;-0.47;77.75;99025.06;2123177;84;21595;-79
2021/03/18 02:59:59;;;;;;;8.03;5.83;;;;;;;-0.57;78.06;99034.68;2123261;84;21196;-79
2021/03/18 03:03:01;;;;;;;10.82;7.22;;;;;;;-0.63;78.19;99040.25;2123488;84;21618;-79
2021/03/18 03:06:03;;;;;;;9.05;6.17;;;;;;;-0.68;78.36;99037.14;2123477;84;21185;-77
2021/03/18 03:09:04;;;;;;;8.28;6.25;;;;;;;-0.73;78.46;99045.64;2123883;84;21598;-78
2021/03/18 03:12:06;;;;;;;8.78;5.42;;;;;;;-0.82;78.49;99039.81;2123480;84;21177;-78
2021/03/18 03:15:07;;;;;;;10.40;6.45;;;;;;;-0.90;78.54;99040.77;2123447;84;21179;-78
2021/03/18 03:18:09;;;;;;;9.55;6.45;;;;;;;-0.94;78.49;99045.73;2123612;84;21187;-78
2021/03/18 03:21:10;;;;;;;9.28;6.47;;;;;;;-1.01;78.55;99047.04;2123660;84;21321;-78
2021/03/18 03:24:12;;;;;;;9.68;6.42;;;;;;;-1.03;78.64;99036.86;2126338;83;21711;-78
2021/03/18 03:27:13;;;;;;;9.33;6.83;;;;;;;-1.08;78.54;99040.67;2133411;83;21603;-78
2021/03/18 03:30:15;;;;;;;9.30;6.62;;;;;;;-1.12;78.60;99031.48;2133467;83;21317;-78
2021/03/18 03:33:17;;;;;;;11.45;6.58;;;;;;;-1.17;78.70;99042.08;2133620;83;21325;-78
2021/03/18 03:36:19;;;;;;;13.13;7.58;;;;;;;-1.20;78.70;99037.93;2133949;83;21195;-79
2021/03/18 03:39:20;;;;;;;10.20;5.87;;;;;;;-1.22;78.61;99042.81;2133393;83;21776;-79
2021/03/18 03:42:22;;;;;;;12.53;7.12;;;;;;;-1.26;78.62;99042.20;2133477;83;21305;-79
2021/03/18 03:45:24;;;;;;;9.70;5.35;;;;;;;-1.28;78.68;99047.90;2133511;83;21131;-80
2021/03/18 03:48:26;;;;;;;8.50;5.92;;;;;;;-1.32;78.67;99040.00;2133614;83;21281;-79
2021/03/18 03:51:28;;;;;;;9.53;5.87;;;;;;;-1.38;78.66;99048.55;2133393;83;21345;-79
2021/03/18 03:54:29;;;;;;;7.80;6.10;;;;;;;-1.42;78.75;99053.53;2133602;83;21377;-79
2021/03/18 03:57:31;;;;;;;11.28;6.75;;;;;;;-1.46;79.03;99049.05;2133185;83;21322;-79
2021/03/18 04:00:33;;;;;;;7.30;6.08;;;;;;;-1.51;78.86;99048.04;2133215;83;21164;-79
2021/03/18 04:03:35;;;;;;;10.88;6.05;;;;;;;-1.54;78.88;99050.81;2133231;83;21734;-79
2021/03/18 04:06:36;;;;;;;11.15;5.35;;;;;;;-1.60;78.96;99049.07;2133390;83;21309;-76
2021/03/18 04:09:38;;;;;;;9.58;7.08;;;;;;;-1.62;79.04;99050.45;2133336;83;21309;-78
2021/03/18 04:12:40;;;;;;;9.35;5.80;;;;;;;-1.65;79.11;99059.61;2133208;83;21135;-78
2021/03/18 04:15:42;;;;;;;10.32;7.03;;;;;;;-1.65;79.44;99060.07;2133211;83;21159;-79
2021/03/18 04:18:43;;;;;;;10.98;7.12;;;;;;;-1.67;79.31;99064.02;2133222;83;21286;-78
2021/03/18 04:21:45;;;;;;;10.78;6.67;;;;;;;-1.70;79.23;99055.69;2133159;83;21766;-78
2021/03/18 04:24:46;;;;;;;15.78;6.92;;;;;;;-1.72;79.44;99057.90;2129383;83;21338;-78
2021/03/18 04:27:48;;;;;;;10.28;6.28;;;;;;;-1.73;79.45;99059.28;2123687;84;21370;-78
2021/03/18 04:30:50;;;;;;;9.98;7.03;;;;;;;-1.76;79.39;99056.42;2123635;83;21282;-79
2021/03/18 04:33:51;;;;;;;14.80;8.05;;;;;;;-1.76;79.58;99067.16;2123609;84;21725;-79
2021/03/18 04:36:53;;;;;;;11.70;7.15;;;;;;;-1.78;79.50;99057.44;2123471;84;21176;-79
2021/03/18 04:39:55;;;;;;;18.75;10.18;;;;;;;-1.79;79.47;99059.64;2123308;84;21195;-79
2021/03/18 04:42:57;;;;;;;15.78;9.15;;;;;;;-1.78;79.52;99060.83;2103043;84;21634;-79
2021/03/18 04:45:59;;;;;;;14.95;9.78;;;;;;;-1.79;79.67;99067.34;2123498;83;21635;-79
2021/03/18 04:49:00;;;;;;;11.75;7.42;;;;;;;-1.78;79.60;99068.99;2123441;84;21611;-78
2021/03/18 04:52:02;;;;;;;16.37;8.80;;;;;;;-1.78;79.64;99074.95;2123261;84;21183;-78
2021/03/18 04:55:04;;;;;;;17.75;9.95;;;;;;;-1.76;79.69;99069.26;2123549;84;21310;-77
2021/03/18 04:58:05;;;;;;;13.05;6.80;;;;;;;-1.67;80.09;99074.75;2123327;84;21148;-78
2021/03/18 05:01:07;;;;;;;15.15;8.28;;;;;;;-1.63;79.98;99078.34;2123350;84;21638;-78
2021/03/18 05:04:09;;;;;;;12.73;7.30;;;;;;;-1.59;79.91;99078.97;2123543;84;21640;-77
2021/03/18 05:07:10;;;;;;;10.68;7.37;;;;;;;-1.56;80.34;99073.17;2123661;84;21334;-77
2021/03/18 05:10:12;;;;;;;13.20;6.67;;;;;;;-1.54;80.32;99084.66;2123430;84;21179;-77
2021/03/18 05:13:13;;;;;;;14.87;10.08;;;;;;;-1.55;80.30;99071.45;2123366;84;21143;-78
2021/03/18 05:16:15;;;;;;;11.83;9.03;;;;;;;-1.59;80.30;99074.66;2123362;83;21177;-78
2021/03/18 05:19:16;;;;;;;15.60;10.30;;;;;;;-1.61;80.15;99077.78;2123804;84;21329;-78
2021/03/18 05:22:19;;;;;;;28.85;19.52;;;;;;;-1.62;80.34;99070.17;2123281;84;21160;-79
2021/03/18 05:25:20;;;;;;;20.30;13.00;;;;;;;-1.57;80.06;99079.23;2131657;83;21198;-76
2021/03/18 05:28:22;;;;;;;28.57;14.85;;;;;;;-1.51;79.99;99084.00;2140432;83;21775;-81
2021/03/18 05:31:24;;;;;;;17.98;11.22;;;;;;;-1.50;79.93;99083.53;2140500;83;21297;-79
2021/03/18 05:34:25;;;;;;;16.23;10.30;;;;;;;-1.52;79.86;99087.95;2140235;83;21749;-79
2021/03/18 05:37:27;;;;;;;11.80;8.85;;;;;;;-1.50;79.85;99091.23;2140434;83;21212;-81
2021/03/18 05:40:28;;;;;;;12.78;8.83;;;;;;;-1.48;79.90;99093.25;2140244;83;21768;-78
2021/03/18 05:43:30;;;;;;;12.13;8.83;;;;;;;-1.42;79.75;99092.06;2140595;83;21171;-79
2021/03/18 05:46:32;;;;;;;16.95;10.15;;;;;;;-1.33;79.67;99085.06;2140242;83;21277;-79
2021/03/18 05:49:33;;;;;;;24.37;13.00;;;;;;;-1.24;79.61;99093.02;2140350;83;21286;-79
2021/03/18 05:52:35;;;;;;;25.70;13.80;;;;;;;-1.13;79.53;99094.09;2140468;83;21733;-80
2021/03/18 05:55:36;;;;;;;21.33;11.97;;;;;;;-0.97;79.48;99084.50;2140483;83;21305;-80
2021/03/18 05:58:38;;;;;;;13.25;9.23;;;;;;;-0.82;79.25;99100.23;2140466;83;21714;-82
2021/03/18 06:01:39;;;;;;;16.10;8.90;;;;;;;-0.77;79.03;99086.60;2140317;83;21714;-85
2021/03/18 06:04:41;;;;;;;10.20;7.65;;;;;;;-0.77;79.24;99084.50;2140414;83;21330;-84
2021/03/18 06:07:43;;;;;;;13.58;9.48;;;;;;;-0.70;79.13;99086.58;2140216;83;21310;-88
2021/03/18 06:10:44;;;;;;;15.60;9.15;;;;;;;-0.67;79.06;99082.52;2140709;83;21324;-86
2021/03/18 06:13:46;;;;;;;15.15;8.58;;;;;;;-0.55;79.12;99080.88;2140082;83;21143;-84
2021/03/18 06:16:47;;;;;;;14.70;7.90;;;;;;;-0.46;78.81;99091.85;2140050;83;21159;-83
2021/03/18 06:19:49;;;;;;;18.32;9.70;;;;;;;-0.43;78.59;99098.56;2140300;83;21329;-81
2021/03/18 06:22:51;;;;;;;11.48;7.62;;;;;;;-0.37;78.60;99098.14;2140267;83;21302;-82
2021/03/18 06:25:52;;;;;;;13.80;8.90;;;;;;;-0.31;78.47;99102.43;2130465;81;21200;-83
2021/03/18 06:28:54;;;;;;;14.33;10.68;;;;;;;-0.26;78.23;99106.47;2123338;84;21544;-82
2021/03/18 06:31:55;;;;;;;10.48;8.10;;;;;;;-0.23;78.18;99112.69;2123170;83;21143;-91
2021/03/18 06:34:58;;;;;;;15.05;8.95;;;;;;;-0.24;78.01;99120.05;2123986;84;21156;-86
2021/03/18 06:38:00;;;;;;;12.88;9.43;;;;;;;-0.27;78.21;99116.37;2123591;84;21305;-85
2021/03/18 06:41:01;;;;;;;13.05;9.63;;;;;;;-0.24;78.12;99108.00;2123644;84;21274;-85
2021/03/18 06:44:03;;;;;;;13.75;9.73;;;;;;;-0.21;78.21;99110.36;2123449;83;21153;-85
2021/03/18 06:47:05;;;;;;;9.58;8.53;;;;;;;-0.15;78.15;99107.39;2123527;84;21179;-84
2021/03/18 06:50:06;;;;;;;11.95;9.30;;;;;;;-0.07;77.77;99097.41;2123756;84;21853;-82
2021/03/18 06:53:08;;;;;;;15.08;10.65;;;;;;;0.06;77.85;99104.30;2123707;84;21324;-82
2021/03/18 06:56:09;;;;;;;26.00;12.03;;;;;;;0.16;77.84;99113.86;2123832;84;21688;-82
2021/03/18 06:59:11;;;;;;;18.15;11.45;;;;;;;0.21;77.62;99106.66;2123749;83;21742;-82
2021/03/18 07:02:13;;;;;;;17.48;12.20;;;;;;;0.28;77.51;99109.66;2123785;84;21144;-82
2021/03/18 07:05:15;;;;;;;18.30;12.53;;;;;;;0.30;77.17;99103.11;2123776;84;21187;-83
2021/03/18 07:08:16;;;;;;;21.05;13.68;;;;;;;0.40;77.24;99100.25;2123483;83;21195;-81
2021/03/18 07:11:18;;;;;;;12.20;9.68;;;;;;;0.50;76.80;99102.55;2123548;83;21156;-81
2021/03/18 07:14:20;;;;;;;12.35;9.95;;;;;;;0.41;76.01;99100.14;2123384;84;21124;-81
2021/03/18 07:17:22;;;;;;;14.68;10.55;;;;;;;0.40;76.16;99101.54;2124071;84;21671;-82
2021/03/18 07:20:23;;;;;;;18.27;11.33;;;;;;;0.48;76.41;99100.08;2123422;83;21139;-82
2021/03/18 07:23:25;;;;;;;18.95;11.50;;;;;;;0.59;76.35;99097.22;2123652;83;21714;-83
2021/03/18 07:26:27;;;;;;;18.32;11.90;;;;;;;0.83;75.86;99094.22;2130062;81;21326;-81
2021/03/18 07:29:28;;;;;;;16.65;12.43;;;;;;;0.97;75.79;99095.33;2133347;83;21873;-82
2021/03/18 07:32:32;;;;;;;10.82;8.90;;;;;;;0.99;75.26;99101.20;2133256;83;21282;-82
2021/03/18 07:50:22;;;;;;;16.12;13.15;;;;;;;1.36;75.43;99077.42;2272693;77;24270;-83
2021/03/18 07:53:24;;;;;;;17.65;13.28;;;;;;;1.36;75.25;99074.84;2269471;78;21285;-84
2021/03/18 07:56:25;;;;;;;17.70;12.45;;;;;;;1.43;74.54;99071.36;2269271;78;21277;-82
2021/03/18 07:59:27;;;;;;;13.75;10.45;;;;;;;1.49;74.88;99074.78;2269468;78;21275;-82
2021/03/18 08:02:31;;;;;;;16.40;12.30;;;;;;;1.45;73.93;99076.40;2269303;78;21285;-82
2021/03/18 08:05:32;;;;;;;12.13;10.05;;;;;;;1.38;73.58;99083.79;2264852;78;21286;-82
2021/03/18 08:08:34;;;;;;;13.45;9.15;;;;;;;1.22;73.55;99080.67;2269502;78;21693;-80
2021/03/18 08:11:36;;;;;;;15.35;11.95;;;;;;;1.06;73.91;99096.43;2269611;78;21582;-81
2021/03/18 08:14:38;;;;;;;12.75;10.75;;;;;;;1.08;74.52;99084.23;2269294;78;21269;-82
2021/03/18 08:17:40;;;;;;;17.23;10.50;;;;;;;1.17;74.00;99087.91;2270034;78;21305;-83
2021/03/18 08:20:46;;;;;;;15.20;11.35;;;;;;;1.18;74.20;99082.64;2269440;78;21314;-81
2021/03/18 08:23:49;;;;;;;15.60;12.37;;;;;;;1.28;74.30;99078.48;2269357;78;21163;-84
2021/03/18 08:26:50;;;;;;;12.45;10.55;;;;;;;1.30;74.34;99081.77;2269707;78;21705;-82
2021/03/18 08:29:52;;;;;;;19.20;13.40;;;;;;;1.26;73.83;99076.92;2269626;78;21143;-83
2021/03/18 08:32:54;;;;;;;18.02;12.73;;;;;;;1.26;74.61;99081.62;2269663;78;21705;-82
2021/03/18 08:35:55;;;;;;;22.60;14.18;;;;;;;1.24;73.94;99085.25;2269297;78;21147;-82
2021/03/18 08:38:57;;;;;;;24.10;16.82;;;;;;;1.17;74.26;99090.48;2269155;78;21304;-83
2021/03/18 08:41:59;;;;;;;26.55;16.52;;;;;;;1.08;74.56;99091.98;2269547;78;21317;-83
2021/03/18 08:45:01;;;;;;;27.07;18.92;;;;;;;0.99;74.26;99101.20;2269696;78;21174;-83
2021/03/18 08:48:03;;;;;;;25.90;19.37;;;;;;;0.99;74.36;99088.77;2268591;78;21300;-82
2021/03/18 08:51:06;;;;;;;33.73;18.65;;;;;;;1.04;74.04;99086.70;2266019;78;21127;-82
2021/03/18 08:54:07;;;;;;;31.17;18.87;;;;;;;1.16;73.84;99097.41;2266333;78;21134;-83
2021/03/18 08:57:09;;;;;;;32.80;20.92;;;;;;;1.14;73.88;99096.70;2265924;78;21313;-82
2021/03/18 09:00:11;;;;;;;30.48;21.37;;;;;;;1.13;73.78;99094.59;2265641;78;21301;-83
2021/03/18 09:03:12;;;;;;;29.67;20.72;;;;;;;1.18;73.27;99096.00;2265257;79;21166;-83
2021/03/18 09:06:14;;;;;;;33.98;20.90;;;;;;;1.24;73.19;99098.15;2265106;79;21182;-82
2021/03/18 09:09:16;;;;;;;33.35;21.48;;;;;;;1.27;73.30;99082.44;2265231;79;21551;-83
2021/03/18 09:12:17;;;;;;;26.10;18.77;;;;;;;1.52;72.89;99077.60;2265339;79;21158;-83
2021/03/18 09:15:19;;;;;;;25.35;17.82;;;;;;;1.90;72.08;99073.44;2265337;79;21585;-83
2021/03/18 09:18:21;;;;;;;22.40;15.95;;;;;;;2.22;70.88;99070.53;2265925;79;21594;-83
2021/03/18 09:21:22;;;;;;;20.80;15.40;;;;;;;2.41;69.96;99073.81;2265330;79;21150;-83
2021/03/18 09:24:24;;;;;;;19.07;15.63;;;;;;;2.30;67.01;99077.70;2265417;79;21285;-83
2021/03/18 09:27:25;;;;;;;28.52;18.90;;;;;;;2.16;67.02;99077.45;2265221;79;21126;-83
2021/03/18 09:30:27;;;;;;;33.92;21.73;;;;;;;2.16;68.72;99077.92;2265455;79;21582;-83
2021/03/18 09:33:29;;;;;;;28.87;16.67;;;;;;;2.16;67.70;99070.17;2265234;79;21167;-82
2021/03/18 09:36:30;;;;;;;20.82;16.32;;;;;;;2.17;66.72;99080.38;2265204;79;21594;-82
2021/03/18 09:39:32;;;;;;;20.00;16.60;;;;;;;2.06;67.05;99092.48;2265431;79;21587;-86
2021/03/18 09:42:33;;;;;;;21.93;16.23;;;;;;;2.13;67.24;99077.70;2265510;79;21523;-82
2021/03/18 09:45:35;;;;;;;22.65;17.50;;;;;;;2.35;68.43;99070.39;2265314;79;21587;-82
2021/03/18 09:48:43;;;;;;;18.60;14.10;;;;;;;2.63;68.42;99066.95;2264703;79;21333;-81
2021/03/18 09:51:45;;;;;;;21.30;13.43;;;;;;;2.87;65.38;99068.91;2262510;79;21306;-80
2021/03/18 09:54:46;;;;;;;15.50;12.53;;;;;;;2.97;66.22;99073.69;2262516;79;21765;-80
2021/03/18 09:57:49;;;;;;;26.65;16.50;;;;;;;2.93;64.38;99072.78;2262412;79;21404;-80
2021/03/18 10:00:53;;;;;;;17.92;13.95;;;;;;;2.91;66.39;99063.00;2262354;79;21178;-80
2021/03/18 10:03:55;;;;;;;15.75;12.68;;;;;;;2.92;64.25;99065.45;2262348;79;21281;-80
2021/03/18 10:06:57;;;;;;;21.20;15.23;;;;;;;2.82;65.50;99072.31;2262798;79;21732;-82
2021/03/18 10:09:59;;;;;;;14.98;12.40;;;;;;;2.72;64.87;99070.11;2262414;79;21321;-80
2021/03/18 10:13:00;;;;;;;13.25;11.35;;;;;;;2.67;63.02;99075.66;2262474;79;21306;-80
2021/03/18 10:16:02;;;;;;;18.15;13.10;;;;;;;2.72;64.15;99073.52;2262474;79;21593;-80
2021/03/18 10:19:04;;;;;;;13.22;10.68;;;;;;;2.83;64.57;99067.05;2262215;79;21285;-80
2021/03/18 10:22:05;;;;;;;11.90;10.35;;;;;;;2.93;63.91;99060.66;2262114;79;21130;-81
2021/03/18 10:25:15;;;;;;;12.18;10.53;;;;;;;2.98;63.54;99055.11;2262340;79;21305;-81
2021/03/18 10:28:48;;;;;;;;;;;;;;;;;;;;;
2021/03/18 10:32:00;;;;;;;17.82;13.25;;;;;;;3.38;61.73;99056.56;2256005;79;21190;-80
2021/03/18 10:35:05;;;;;;;17.17;13.58;;;;;;;3.56;62.73;99061.53;2262293;79;21293;-80
2021/03/18 10:38:07;;;;;;;17.45;12.25;;;;;;;3.59;62.08;99050.94;2262308;79;21298;-80
2021/03/18 10:41:08;;;;;;;16.97;13.10;;;;;;;3.59;62.07;99044.47;2262386;79;21313;-80
2021/03/18 10:44:10;;;;;;;17.75;13.03;;;;;;;3.57;62.00;99044.25;2262283;79;21270;-82
2021/03/18 10:47:12;;;;;;;12.25;9.78;;;;;;;3.49;62.48;99048.77;2234801;79;21146;-81
2021/03/18 10:50:14;;;;;;;15.15;12.15;;;;;;;3.50;62.49;99041.34;2259581;78;21104;-86
2021/03/18 10:53:16;;;;;;;12.07;10.63;;;;;;;3.61;60.86;99039.97;2258908;79;21661;-87
2021/03/18 10:56:17;;;;;;;11.78;10.60;;;;;;;3.61;60.60;99038.68;2258396;79;21274;-87
2021/03/18 10:59:19;;;;;;;13.62;11.30;;;;;;;3.59;61.49;99040.58;2258301;79;21289;-87
2021/03/18 11:02:21;;;;;;;12.50;9.58;;;;;;;3.56;61.16;99031.75;2258035;79;21155;-86
2021/03/18 11:05:23;;;;;;;15.08;12.95;;;;;;;3.52;60.09;99034.73;2258226;78;21186;-85
2021/03/18 11:08:24;;;;;;;18.52;11.80;;;;;;;3.67;61.38;99027.82;2258522;79;21309;-84
2021/03/18 11:11:26;;;;;;;12.53;11.33;;;;;;;3.81;60.86;99031.83;2258489;79;21277;-87
2021/03/18 11:14:28;;;;;;;16.82;12.43;;;;;;;4.02;61.32;99033.55;2258550;79;21285;-85
2021/03/18 11:17:30;;;;;;;23.90;15.43;;;;;;;4.24;60.83;99024.31;2258021;79;21278;-86
2021/03/18 11:20:31;;;;;;;16.07;12.00;;;;;;;4.41;60.58;99017.20;2257612;79;21160;-86
2021/03/18 11:23:35;;;;;;;17.62;13.22;;;;;;;4.43;59.55;99023.06;2257909;79;21744;-87
2021/03/18 11:26:37;;;;;;;15.72;11.30;;;;;;;4.41;58.90;99014.61;2258277;79;21603;-87
2021/03/18 11:29:38;;;;;;;20.43;14.50;;;;;;;4.28;57.51;99012.23;2258221;79;21489;-86
2021/03/18 11:32:40;;;;;;;22.25;15.80;;;;;;;4.22;58.54;99014.55;2258413;79;21336;-86
2021/03/18 11:35:41;;;;;;;19.17;15.30;;;;;;;4.24;59.78;99016.53;2258280;79;21246;-86
2021/03/18 11:38:43;;;;;;;15.53;12.10;;;;;;;4.30;59.11;99005.64;2258261;79;21745;-86
2021/03/18 11:41:44;;;;;;;10.60;9.58;;;;;;;4.26;59.09;99003.77;2258508;79;21285;-87
2021/03/18 11:44:46;;;;;;;9.53;8.50;;;;;;;4.26;57.60;99002.95;2258408;78;21309;-86
2021/03/18 11:47:48;;;;;;;12.28;9.90;;;;;;;4.19;57.01;99005.73;2258493;78;21144;-86
2021/03/18 11:50:49;;;;;;;11.88;10.08;;;;;;;4.13;57.61;98997.20;2258187;79;21139;-86
2021/03/18 11:53:51;;;;;;;12.58;9.83;;;;;;;4.14;57.97;98997.06;2258168;79;21313;-87
2021/03/18 11:56:52;;;;;;;13.03;9.03;;;;;;;4.07;56.96;99000.31;2257789;79;21678;-88
2021/03/18 11:59:54;;;;;;;10.13;8.78;;;;;;;3.94;56.67;98994.89;2258224;79;21289;-86
2021/03/18 12:02:56;;;;;;;12.18;10.00;;;;;;;3.89;56.58;98984.08;2258275;79;21706;-82
2021/03/18 12:05:57;;;;;;;9.35;8.45;;;;;;;3.91;57.08;98981.36;2258174;79;21729;-82
2021/03/18 12:08:59;;;;;;;11.03;8.50;;;;;;;3.91;56.33;98986.06;2258273;79;21698;-82
2021/03/18 12:12:01;;;;;;;9.03;7.97;;;;;;;4.03;56.60;98976.92;2258358;79;21317;-84
2021/03/18 12:15:03;;;;;;;7.90;6.85;;;;;;;4.18;57.43;98971.22;2258146;78;21139;-86
2021/03/18 12:18:04;;;;;;;9.85;8.20;;;;;;;4.20;55.11;98974.97;2258163;79;21134;-85
2021/03/18 12:21:07;;;;;;;8.18;7.47;;;;;;;4.04;55.50;98963.83;2258104;78;21583;-83
2021/03/18 12:24:12;;;;;;;6.55;5.83;;;;;;;3.89;55.07;98970.31;2258012;78;21302;-82
2021/03/18 12:27:13;;;;;;;8.80;7.40;;;;;;;3.83;54.42;98965.64;2257923;78;21136;-83
2021/03/18 12:30:15;;;;;;;8.30;6.08;;;;;;;3.84;55.47;98959.06;2258315;78;21193;-84
2021/03/18 12:33:18;;;;;;;5.70;5.08;;;;;;;3.92;53.01;98959.67;2258227;78;21301;-82
2021/03/18 12:36:20;;;;;;;6.35;5.72;;;;;;;3.86;53.86;98955.04;2258401;78;21187;-83
2021/03/18 12:39:22;;;;;;;7.35;4.97;;;;;;;3.88;53.62;98951.84;2258362;78;21091;-84
2021/03/18 12:42:24;;;;;;;7.50;5.55;;;;;;;4.00;51.52;98951.59;2259182;79;21298;-86
2021/03/18 12:45:26;;;;;;;6.47;5.87;;;;;;;4.08;52.94;98935.39;2258746;79;21129;-85
2021/03/18 12:48:27;;;;;;;5.67;5.17;;;;;;;4.10;51.37;98944.32;2258203;79;21143;-85
2021/03/18 12:51:29;;;;;;;7.20;5.00;;;;;;;4.04;49.72;98935.80;2265115;78;21324;-84
2021/03/18 12:54:30;;;;;;;4.72;4.33;;;;;;;4.04;49.63;98944.87;2265388;78;21159;-83
2021/03/18 12:57:32;;;;;;;9.20;6.72;;;;;;;3.95;47.85;98934.34;2265410;79;21130;-84
2021/03/18 13:00:35;;;;;;;6.58;5.55;;;;;;;3.87;49.15;98939.36;2266300;78;21269;-84
2021/03/18 13:03:37;;;;;;;4.60;4.20;;;;;;;3.84;51.00;98924.53;2261522;79;21183;-84
2021/03/18 13:06:39;;;;;;;5.20;4.70;;;;;;;3.80;49.90;98927.06;2265742;79;21321;-85
2021/03/18 13:09:52;;;;;;;7.72;4.55;;;;;;;3.82;50.48;98918.20;2264634;78;21313;-82
2021/03/18 13:12:54;;;;;;;5.47;4.95;;;;;;;3.91;50.17;98917.88;2265651;78;21170;-86
2021/03/18 13:15:58;;;;;;;5.10;4.60;;;;;;;4.06;48.94;98914.45;2263610;79;21136;-85
2021/03/18 13:19:00;;;;;;;5.50;4.78;;;;;;;4.15;49.66;98905.88;2265440;78;21122;-84
2021/03/18 13:22:06;;;;;;;5.50;5.00;;;;;;;4.20;48.85;98906.28;2265382;79;21301;-86
2021/03/18 13:25:07;;;;;;;5.65;5.15;;;;;;;4.17;47.41;98909.15;2265125;79;21139;-86
2021/03/18 13:28:16;;;;;;;5.58;4.60;;;;;;;4.17;48.73;98900.89;2265304;78;21151;-86
2021/03/18 13:31:18;;;;;;;5.53;3.98;;;;;;;4.23;47.98;98900.37;2265534;78;21273;-85
2021/03/18 13:34:22;;;;;;;5.95;4.75;;;;;;;4.29;47.02;98886.84;2265699;78;21962;-86
2021/03/18 13:37:26;;;;;;;7.47;5.65;;;;;;;4.41;48.07;98897.11;2265619;78;21123;-87
2021/03/18 13:40:30;;;;;;;5.00;4.55;;;;;;;4.45;48.46;98892.80;2265811;78;21267;-86
2021/03/18 13:43:31;;;;;;;4.90;4.45;;;;;;;4.43;47.31;98894.72;2265590;78;21312;-83
2021/03/18 13:46:33;;;;;;;9.00;6.67;;;;;;;4.37;47.25;98890.55;2265187;78;21284;-82
2021/03/18 13:49:35;;;;;;;6.12;5.62;;;;;;;4.31;47.21;98888.03;2265233;79;21301;-83
2021/03/18 13:52:36;;;;;;;5.22;4.78;;;;;;;4.35;48.67;98884.68;2265514;78;21175;-84
2021/03/18 13:55:38;;;;;;;5.35;4.85;;;;;;;4.32;47.34;98884.48;2265254;79;21147;-83
2021/03/18 13:58:42;;;;;;;6.45;5.85;;;;;;;4.25;48.61;98880.78;2265473;78;21267;-83
2021/03/18 14:01:46;;;;;;;7.55;6.17;;;;;;;4.22;48.79;98873.30;2265528;78;21266;-84
2021/03/18 14:04:49;;;;;;;6.83;6.20;;;;;;;4.18;49.04;98876.61;2264911;78;21112;-83
2021/03/18 14:07:51;;;;;;;6.50;5.90;;;;;;;4.20;48.69;98873.87;2265634;78;21571;-82
2021/03/18 14:10:52;;;;;;;7.50;5.97;;;;;;;4.26;48.90;98872.87;2265128;78;21751;-84
2021/03/18 14:13:54;;;;;;;7.65;6.85;;;;;;;4.26;47.95;98875.94;2265292;78;21292;-85
2021/03/18 14:16:55;;;;;;;7.35;6.67;;;;;;;4.22;49.03;98861.15;2265613;78;21147;-84
2021/03/18 14:19:57;;;;;;;6.70;6.08;;;;;;;4.16;48.22;98863.45;2265537;78;21713;-87
2021/03/18 14:22:59;;;;;;;7.55;6.10;;;;;;;4.08;47.69;98856.35;2265267;79;21622;-85
2021/03/18 14:26:00;;;;;;;6.87;6.35;;;;;;;4.06;49.33;98856.15;2265028;78;21417;-84
2021/03/18 14:29:03;;;;;;;6.05;5.65;;;;;;;4.08;49.67;98854.23;2265573;79;21259;-85